Time;durP1;ratioP1;P1;durP2;ratioP2;P2;SDS_P1;SDS_P2;PMS_P1;PMS_P2;Temp;Humidity;BMP_temperature;BMP_pressure;BME280_temperature;BME280_humidity;BME280_pressure;Samples;Min_cycle;Max_cycle;Signal;HPM_P1;HPM_P2
2022/01/07 00:01:03;;;;;;;37.80;11.57;;;;;;;-3.11;72.23;99270.17;2200691;80;21065;-82
2022/01/07 00:04:04;;;;;;;34.37;10.93;;;;;;;-3.14;72.22;99274.67;2207815;80;21035;-81
2022/01/07 00:07:05;;;;;;;30.43;9.50;;;;;;;-3.17;72.26;99274.84;2166027;80;21039;-81
2022/01/07 00:10:05;;;;;;;23.93;6.87;;;;;;;-3.20;72.31;99269.13;2205722;80;21003;-82
2022/01/07 00:13:06;;;;;;;24.30;7.17;;;;;;;-3.21;72.33;99278.84;2198886;80;21426;-82
2022/01/07 00:16:06;;;;;;;19.30;6.77;;;;;;;-3.24;72.33;99279.50;2171577;80;20991;-82
2022/01/07 00:19:07;;;;;;;14.27;6.83;;;;;;;-3.26;72.52;99278.89;2181702;80;21024;-81
2022/01/07 00:22:07;;;;;;;20.87;7.07;;;;;;;-3.29;72.60;99273.56;2174916;80;20987;-81
2022/01/07 00:25:07;;;;;;;13.83;5.50;;;;;;;-3.31;72.82;99280.22;2194717;80;21000;-81
2022/01/07 00:28:08;;;;;;;12.17;6.20;;;;;;;-3.34;72.87;99283.45;2165933;80;20929;-81
2022/01/07 00:31:08;;;;;;;10.20;4.73;;;;;;;-3.32;73.04;99288.66;2182281;80;21031;-82
2022/01/07 00:34:09;;;;;;;16.50;6.40;;;;;;;-3.36;72.80;99292.66;2208537;80;21001;-82
2022/01/07 00:37:10;;;;;;;12.67;5.63;;;;;;;-3.36;73.16;99294.31;2165552;80;21026;-82
2022/01/07 00:40:11;;;;;;;12.90;5.60;;;;;;;-3.33;73.42;99295.81;2200436;80;21047;-81
2022/01/07 00:43:11;;;;;;;16.83;6.03;;;;;;;-3.29;73.35;99288.88;2193842;80;20996;-81
2022/01/07 00:46:12;;;;;;;13.73;5.67;;;;;;;-3.30;73.29;99295.66;2201422;80;20992;-82
2022/01/07 00:49:17;;;;;;;17.80;7.13;;;;;;;-3.33;73.35;99305.64;2210611;80;21016;-81
2022/01/07 00:52:15;;;;;;;25.03;10.47;;;;;;;-3.33;73.41;99308.58;2192181;80;21051;-81
2022/01/07 00:55:15;;;;;;;33.70;12.30;;;;;;;-3.35;73.44;99314.85;2174330;80;20991;-81
2022/01/07 00:58:16;;;;;;;33.53;13.77;;;;;;;-3.40;73.44;99326.39;2198481;80;20998;-81
2022/01/07 01:01:17;;;;;;;38.63;13.10;;;;;;;-3.45;73.37;99322.61;2199512;80;21012;-81
2022/01/07 01:04:18;;;;;;;29.13;9.97;;;;;;;-3.48;73.52;99322.73;2191839;80;21467;-81
2022/01/07 01:07:19;;;;;;;14.97;7.80;;;;;;;-3.50;73.83;99320.46;2195895;80;21336;-81
2022/01/07 01:10:19;;;;;;;14.37;6.00;;;;;;;-3.53;73.60;99314.74;2177085;80;21034;-81
2022/01/07 01:13:20;;;;;;;20.73;6.80;;;;;;;-3.53;73.82;99317.30;2189344;80;20977;-81
2022/01/07 01:16:20;;;;;;;18.43;7.70;;;;;;;-3.56;73.49;99317.06;2189354;80;21004;-83
2022/01/07 01:19:21;;;;;;;17.20;7.13;;;;;;;-3.60;73.92;99322.33;2186958;80;21016;-81
2022/01/07 01:22:21;;;;;;;15.43;7.10;;;;;;;-3.62;73.88;99320.44;2191337;80;21353;-81
2022/01/07 01:25:22;;;;;;;18.37;8.27;;;;;;;-3.63;74.05;99315.73;2179171;80;20988;-82
2022/01/07 01:28:22;;;;;;;20.03;8.20;;;;;;;-3.63;74.12;99313.17;2171378;80;21015;-82
2022/01/07 01:31:22;;;;;;;20.50;7.80;;;;;;;-3.66;74.05;99319.33;2180288;80;20998;-81
2022/01/07 01:34:23;;;;;;;17.83;7.47;;;;;;;-3.72;74.01;99317.98;2203747;81;21000;-81
2022/01/07 01:37:23;;;;;;;15.83;7.40;;;;;;;-3.81;74.14;99325.83;2204139;80;21408;-81
2022/01/07 01:40:24;;;;;;;11.50;6.17;;;;;;;-3.87;74.61;99317.34;2176707;80;20980;-81
2022/01/07 01:43:24;;;;;;;17.83;7.50;;;;;;;-3.87;75.15;99319.00;2195251;80;21098;-80
2022/01/07 01:46:25;;;;;;;17.80;8.10;;;;;;;-3.90;75.10;99323.87;2166321;80;21051;-82
2022/01/07 01:49:26;;;;;;;16.00;7.20;;;;;;;-3.92;75.35;99316.48;2184112;80;20988;-80
2022/01/07 01:52:26;;;;;;;19.50;7.93;;;;;;;-3.95;75.50;99318.42;2199075;80;21087;-81
2022/01/07 01:55:27;;;;;;;19.67;8.27;;;;;;;-3.95;75.51;99325.18;2139886;82;20975;-81
2022/01/07 01:58:27;;;;;;;19.00;7.60;;;;;;;-3.95;75.62;99326.07;2107517;83;21053;-81
2022/01/07 02:01:28;;;;;;;21.00;8.20;;;;;;;-3.96;75.76;99328.12;2195366;80;20952;-81
2022/01/07 02:04:29;;;;;;;20.00;8.60;;;;;;;-3.90;75.87;99329.86;2191763;80;21036;-81
2022/01/07 02:07:30;;;;;;;21.90;8.67;;;;;;;-3.90;75.91;99326.42;2174283;80;21340;-81
2022/01/07 02:10:30;;;;;;;19.67;8.30;;;;;;;-3.90;75.79;99333.69;2192758;80;21003;-81
2022/01/07 02:13:31;;;;;;;22.07;8.93;;;;;;;-3.90;75.75;99327.69;2181195;80;21035;-81
2022/01/07 02:16:31;;;;;;;19.90;7.87;;;;;;;-3.90;75.75;99331.13;2197529;80;21364;-81
2022/01/07 02:19:32;;;;;;;19.43;9.23;;;;;;;-3.92;75.69;99330.13;2195434;80;21419;-81
2022/01/07 02:22:32;;;;;;;24.33;8.83;;;;;;;-3.89;76.16;99327.81;2206409;80;21016;-81
2022/01/07 02:25:33;;;;;;;17.93;8.13;;;;;;;-3.89;75.87;99321.43;2209319;80;20973;-81
2022/01/07 02:28:33;;;;;;;16.93;8.20;;;;;;;-3.87;75.87;99326.65;2189070;80;21003;-81
2022/01/07 02:31:34;;;;;;;19.97;9.00;;;;;;;-3.90;75.75;99326.03;2178102;80;20987;-82
2022/01/07 02:34:34;;;;;;;19.03;8.73;;;;;;;-3.89;75.84;99331.63;2188939;80;21029;-81
2022/01/07 02:37:35;;;;;;;20.70;8.43;;;;;;;-3.91;75.71;99328.47;2183997;80;21399;-82
2022/01/07 02:40:35;;;;;;;19.00;8.20;;;;;;;-3.90;75.72;99329.86;2209850;81;21455;-81
2022/01/07 02:43:36;;;;;;;19.17;8.30;;;;;;;-3.88;75.75;99327.03;2199528;80;21404;-81
2022/01/07 02:46:37;;;;;;;16.87;7.87;;;;;;;-3.89;75.67;99322.70;2180959;80;21380;-81
2022/01/07 02:49:37;;;;;;;19.37;8.43;;;;;;;-3.91;75.56;99324.25;2175197;80;21010;-82
2022/01/07 02:52:38;;;;;;;23.77;8.40;;;;;;;-3.92;75.46;99325.41;2201647;80;21016;-81
2022/01/07 02:55:38;;;;;;;15.67;7.30;;;;;;;-3.94;75.47;99320.20;2190837;80;21000;-81
2022/01/07 02:58:39;;;;;;;18.37;7.93;;;;;;;-3.97;75.48;99322.91;2191571;80;20957;-81
2022/01/07 03:01:39;;;;;;;19.63;9.43;;;;;;;-4.01;75.46;99324.33;2203544;80;21028;-81
2022/01/07 03:04:40;;;;;;;23.47;10.00;;;;;;;-3.99;75.61;99330.83;2200845;80;21013;-82
2022/01/07 03:07:40;;;;;;;25.97;10.40;;;;;;;-4.00;75.47;99328.66;2171096;80;21408;-82
2022/01/07 03:10:41;;;;;;;27.50;11.63;;;;;;;-4.01;75.47;99324.33;2198191;80;21023;-82
2022/01/07 03:13:41;;;;;;;38.53;11.73;;;;;;;-4.03;75.54;99325.88;2182447;80;21003;-82
2022/01/07 03:16:42;;;;;;;32.73;12.57;;;;;;;-4.01;75.46;99325.99;2194817;80;20976;-82
2022/01/07 03:19:42;;;;;;;20.00;9.47;;;;;;;-4.03;75.59;99312.23;2193982;80;20977;-82
2022/01/07 03:22:43;;;;;;;20.87;8.67;;;;;;;-4.03;75.43;99313.52;2210239;80;21055;-81
2022/01/07 03:25:46;;;;;;;21.73;8.33;;;;;;;-4.08;75.30;99314.44;2204672;80;20999;-81
2022/01/07 03:28:47;;;;;;;15.80;7.27;;;;;;;-4.08;75.51;99311.89;2204116;81;20953;-82
2022/01/07 03:31:48;;;;;;;17.90;7.83;;;;;;;-4.09;75.26;99313.94;2186642;80;20980;-81
2022/01/07 03:34:48;;;;;;;17.37;9.10;;;;;;;-4.10;75.40;99320.20;2211463;80;21020;-81
2022/01/07 03:37:49;;;;;;;21.47;9.17;;;;;;;-4.12;75.35;99325.17;2209863;80;21336;-82
2022/01/07 03:40:50;;;;;;;24.00;10.17;;;;;;;-4.12;75.27;99328.11;2187185;80;21076;-81
2022/01/07 03:43:50;;;;;;;24.83;9.90;;;;;;;-4.12;75.27;99328.11;2181135;80;21320;-82
2022/01/07 03:46:51;;;;;;;19.47;8.90;;;;;;;-4.14;75.24;99332.20;2180576;80;21027;-82
2022/01/07 03:49:51;;;;;;;16.43;8.27;;;;;;;-4.14;75.30;99339.47;2185154;80;21000;-81
2022/01/07 03:52:52;;;;;;;21.43;8.70;;;;;;;-4.17;75.06;99337.96;2183446;80;21007;-82
2022/01/07 03:55:52;;;;;;;17.07;8.77;;;;;;;-4.23;74.93;99341.31;2184338;80;20991;-82
2022/01/07 03:58:53;;;;;;;18.83;8.10;;;;;;;-4.32;74.87;99335.12;2202181;81;21411;-82
2022/01/07 04:01:53;;;;;;;20.23;8.63;;;;;;;-4.37;75.17;99331.68;2199669;80;21439;-82
2022/01/07 04:04:55;;;;;;;16.47;7.53;;;;;;;-4.40;75.58;99328.89;2183704;80;21367;-80
2022/01/07 04:07:56;;;;;;;16.23;7.73;;;;;;;-4.35;75.45;99319.94;2198603;80;21007;-81
2022/01/07 04:10:56;;;;;;;22.03;8.60;;;;;;;-4.33;75.56;99322.27;2173980;80;20992;-81
2022/01/07 04:13:56;;;;;;;18.10;9.00;;;;;;;-4.32;75.35;99326.59;2192447;80;21477;-81
2022/01/07 04:16:59;;;;;;;21.37;8.73;;;;;;;-4.34;75.36;99331.53;2177847;80;21026;-81
2022/01/07 04:19:59;;;;;;;17.43;7.63;;;;;;;-4.34;75.52;99325.16;2166408;80;21070;-81
2022/01/07 04:23:00;;;;;;;19.70;7.67;;;;;;;-4.40;74.89;99328.52;2178165;80;20991;-81
2022/01/07 04:26:00;;;;;;;21.50;7.33;;;;;;;-4.44;75.02;99326.88;2188660;80;21059;-82
2022/01/07 04:29:00;;;;;;;22.80;8.80;;;;;;;-4.53;74.98;99332.16;2190820;80;20992;-82
2022/01/07 04:32:02;;;;;;;17.80;7.80;;;;;;;-4.57;75.30;99325.92;2181848;80;20964;-82
2022/01/07 04:35:02;;;;;;;15.33;8.03;;;;;;;-4.56;75.23;99325.55;2194825;80;21079;-82
2022/01/07 04:38:03;;;;;;;18.07;8.07;;;;;;;-4.63;75.11;99333.48;2208342;81;21028;-82
2022/01/07 04:41:04;;;;;;;27.13;8.93;;;;;;;-4.69;75.04;99332.61;2190313;80;21011;-83
2022/01/07 04:44:04;;;;;;;23.97;8.70;;;;;;;-4.75;75.21;99337.22;2201002;80;21003;-81
2022/01/07 04:47:04;;;;;;;21.53;8.27;;;;;;;-4.75;75.32;99340.16;2178119;80;20989;-82
2022/01/07 04:50:05;;;;;;;19.97;8.70;;;;;;;-4.77;75.09;99348.06;2188324;80;20972;-81
2022/01/07 04:53:05;;;;;;;24.13;9.90;;;;;;;-4.76;75.67;99346.02;2171043;80;21058;-81
2022/01/07 04:56:06;;;;;;;21.33;10.33;;;;;;;-4.73;75.75;99345.87;2170747;80;20996;-82
2022/01/07 04:59:06;;;;;;;21.63;9.40;;;;;;;-4.69;75.77;99352.09;2166075;80;21003;-81
2022/01/07 05:02:07;;;;;;;22.80;10.57;;;;;;;-4.65;75.80;99343.93;2198070;81;20993;-81
2022/01/07 05:05:08;;;;;;;23.20;10.30;;;;;;;-4.67;75.44;99346.36;2207923;80;21410;-81
2022/01/07 05:08:08;;;;;;;26.37;10.47;;;;;;;-4.72;75.33;99352.75;2176739;80;21439;-82
2022/01/07 05:11:09;;;;;;;21.87;9.27;;;;;;;-4.71;75.49;99351.98;2194377;81;20980;-81
2022/01/07 05:14:09;;;;;;;21.73;8.93;;;;;;;-4.68;75.94;99342.41;2203693;80;21039;-81
2022/01/07 05:17:10;;;;;;;20.37;9.60;;;;;;;-4.67;75.77;99351.45;2197602;80;21000;-81
2022/01/07 05:20:10;;;;;;;25.73;9.97;;;;;;;-4.69;75.59;99352.09;2197305;80;21004;-80
2022/01/07 05:23:11;;;;;;;19.80;9.00;;;;;;;-4.72;75.68;99351.47;2198106;80;21079;-80
2022/01/07 05:26:11;;;;;;;20.53;8.37;;;;;;;-4.76;75.52;99349.84;2195645;80;21011;-81
2022/01/07 05:29:12;;;;;;;20.33;8.97;;;;;;;-4.84;75.32;99339.05;2182207;80;21387;-80
2022/01/07 05:32:12;;;;;;;22.30;9.33;;;;;;;-4.87;75.51;99342.62;2202420;80;21364;-80
2022/01/07 05:35:13;;;;;;;22.50;9.67;;;;;;;-4.93;75.68;99337.93;2174310;80;20964;-81
2022/01/07 05:38:13;;;;;;;27.67;10.57;;;;;;;-4.90;76.26;99334.35;2189774;80;20996;-80
2022/01/07 05:41:14;;;;;;;30.27;11.63;;;;;;;-4.80;76.62;99339.79;2190220;80;21023;-80
2022/01/07 05:44:14;;;;;;;30.57;12.17;;;;;;;-4.74;76.67;99333.02;2194610;80;21007;-80
2022/01/07 05:47:15;;;;;;;33.87;12.43;;;;;;;-4.68;76.51;99338.59;2172058;80;20960;-81
2022/01/07 05:50:15;;;;;;;27.77;11.00;;;;;;;-4.64;76.67;99334.24;2196100;80;21959;-80
2022/01/07 05:53:16;;;;;;;32.30;12.90;;;;;;;-4.55;76.71;99342.22;2186358;80;21026;-78
2022/01/07 05:59:19;;;;;;;32.00;12.27;;;;;;;-4.32;76.99;99333.84;2148247;81;21070;-79
2022/01/07 06:02:19;;;;;;;38.13;13.73;;;;;;;-4.25;76.87;99339.03;2179146;80;21411;-78
2022/01/07 06:05:20;;;;;;;30.67;13.60;;;;;;;-4.25;76.63;99342.86;2202469;80;21486;-78
2022/01/07 06:08:20;;;;;;;45.60;18.00;;;;;;;-4.23;76.63;99332.00;2180666;80;21015;-78
2022/01/07 06:11:21;;;;;;;56.67;18.97;;;;;;;-4.24;76.63;99331.89;2180139;80;20967;-78
2022/01/07 06:14:23;;;;;;;38.83;15.97;;;;;;;-4.22;76.75;99335.06;2210565;80;21000;-79
2022/01/07 06:17:23;;;;;;;34.77;14.63;;;;;;;-4.18;76.71;99338.73;2200475;80;21008;-79
2022/01/07 06:20:24;;;;;;;42.50;15.77;;;;;;;-4.16;76.54;99337.19;2191865;80;21015;-79
2022/01/07 06:23:24;;;;;;;35.30;15.27;;;;;;;-4.17;76.38;99327.38;2199768;80;21051;-79
2022/01/07 06:26:25;;;;;;;36.30;15.37;;;;;;;-4.15;76.34;99326.60;2167282;80;21012;-79
2022/01/07 06:29:25;;;;;;;43.87;16.27;;;;;;;-4.18;76.06;99329.42;2209621;80;21027;-79
2022/01/07 06:32:26;;;;;;;38.23;16.83;;;;;;;-4.18;76.12;99324.70;2190950;80;20999;-79
2022/01/07 06:35:26;;;;;;;42.70;16.90;;;;;;;-4.19;76.15;99327.64;2197621;81;21404;-79
2022/01/07 06:38:26;;;;;;;37.60;17.57;;;;;;;-4.23;75.79;99320.92;2180351;80;20991;-79
2022/01/07 06:41:27;;;;;;;38.90;18.23;;;;;;;-4.30;75.45;99311.91;2188777;80;20964;-79
2022/01/07 06:44:28;;;;;;;39.53;18.83;;;;;;;-4.39;75.46;99316.66;2182029;80;21055;-79
2022/01/07 06:47:28;;;;;;;36.30;17.43;;;;;;;-4.44;75.57;99320.51;2185733;80;20996;-79
2022/01/07 06:50:29;;;;;;;40.87;18.13;;;;;;;-4.52;75.49;99319.91;2199617;80;21026;-78
2022/01/07 06:53:30;;;;;;;41.70;18.33;;;;;;;-4.58;75.33;99319.44;2185777;80;21035;-79
2022/01/07 06:56:31;;;;;;;39.03;17.73;;;;;;;-4.60;75.51;99317.16;2187229;80;20976;-79
2022/01/07 06:59:31;;;;;;;45.87;18.30;;;;;;;-4.64;75.21;99316.03;2166505;80;21004;-79
2022/01/07 07:02:32;;;;;;;57.23;21.17;;;;;;;-4.67;75.19;99322.16;2165926;80;21026;-79
2022/01/07 07:05:32;;;;;;;47.77;22.77;;;;;;;-4.66;75.21;99333.23;2187020;80;20987;-80
2022/01/07 07:08:33;;;;;;;44.90;21.43;;;;;;;-4.65;75.09;99330.81;2191128;80;21402;-79
2022/01/07 07:11:33;;;;;;;44.57;21.43;;;;;;;-4.66;75.15;99326.48;2207903;80;21368;-79
2022/01/07 07:14:33;;;;;;;52.33;21.77;;;;;;;-4.68;74.98;99324.20;2191680;80;20963;-79
2022/01/07 07:17:34;;;;;;;53.07;21.50;;;;;;;-4.67;74.87;99318.72;2194640;80;20996;-80
2022/01/07 07:20:34;;;;;;;76.47;37.93;;;;;;;-4.64;74.96;99312.20;2200094;80;21004;-80
2022/01/07 07:23:35;;;;;;;55.37;23.73;;;;;;;-4.62;74.84;99315.77;2179058;80;21083;-80
2022/01/07 07:26:35;;;;;;;48.20;23.03;;;;;;;-4.61;74.76;99313.72;2188184;80;21055;-79
2022/01/07 07:29:36;;;;;;;53.10;22.60;;;;;;;-4.56;74.97;99310.25;2166754;80;21067;-79
2022/01/07 07:32:38;;;;;;;53.17;22.57;;;;;;;-4.47;75.20;99316.45;2184659;80;21376;-81
2022/01/07 07:38:57;;;;;;;51.00;22.20;;;;;;;-4.24;74.91;99307.67;2189363;80;21066;-80
2022/01/07 07:41:58;;;;;;;47.90;22.03;;;;;;;-4.11;74.61;99302.73;2189200;80;20960;-79
2022/01/07 07:44:58;;;;;;;45.47;22.40;;;;;;;-3.99;74.67;99304.05;2199336;80;21043;-81
2022/01/07 07:47:59;;;;;;;63.17;24.40;;;;;;;-3.83;74.89;99304.81;2186543;80;20996;-80
2022/01/07 07:50:59;;;;;;;53.47;23.23;;;;;;;-3.65;74.94;99304.52;2179424;80;21019;-80
2022/01/07 07:54:00;;;;;;;60.83;25.83;;;;;;;-3.43;74.94;99296.81;2203235;80;21008;-80
2022/01/07 07:57:00;;;;;;;74.47;27.30;;;;;;;-3.18;74.98;99303.31;2194369;80;21463;-80
2022/01/07 08:00:02;;;;;;;85.33;29.23;;;;;;;-2.96;74.86;99301.91;2181675;80;21399;-80
2022/01/07 08:03:03;;;;;;;86.17;31.27;;;;;;;-2.75;74.65;99304.72;2208032;80;20976;-80
2022/01/07 08:06:04;;;;;;;60.50;26.37;;;;;;;-2.57;74.66;99312.83;2195224;80;20995;-79
2022/01/07 08:09:04;;;;;;;48.00;19.20;;;;;;;-2.34;74.22;99312.75;2172422;80;21019;-79
2022/01/07 08:12:17;;;;;;;41.90;18.03;;;;;;;-2.17;73.37;99304.97;2201376;80;21035;-79
2022/01/07 08:18:25;;;;;;;34.67;16.00;;;;;;;-1.95;73.35;99317.16;2187030;80;21327;-79
2022/01/07 08:21:26;;;;;;;42.97;17.90;;;;;;;-1.96;71.72;99319.22;2186494;80;20988;-78
2022/01/07 08:24:26;;;;;;;41.13;17.50;;;;;;;-1.91;72.06;99320.81;2200051;80;21020;-79
2022/01/07 08:27:27;;;;;;;41.40;17.03;;;;;;;-1.83;71.81;99317.49;2172454;80;20988;-79
2022/01/07 08:30:35;;;;;;;45.53;18.07;;;;;;;-1.69;71.55;99322.78;2191883;80;21016;-79
2022/01/07 08:36:49;;;;;;;41.73;17.37;;;;;;;-1.49;70.81;99319.38;2196250;80;21440;-79
2022/01/07 08:39:53;;;;;;;42.57;16.83;;;;;;;-1.36;70.67;99324.53;2203427;80;21023;-78
2022/01/07 08:42:53;;;;;;;40.43;16.00;;;;;;;-1.22;70.29;99319.03;2188329;80;21423;-78
2022/01/07 08:45:54;;;;;;;42.77;17.70;;;;;;;-1.04;70.82;99316.38;2193621;80;21000;-78
2022/01/07 08:48:54;;;;;;;44.80;19.63;;;;;;;-0.88;69.47;99307.99;2165665;80;21298;-78
2022/01/07 08:51:55;;;;;;;48.63;19.73;;;;;;;-0.73;70.32;99300.03;2187368;80;20980;-79
2022/01/07 08:54:55;;;;;;;53.50;21.53;;;;;;;-0.62;69.09;99295.17;2179037;80;21050;-78
2022/01/07 08:57:56;;;;;;;44.77;18.63;;;;;;;-0.54;69.44;99286.68;2187987;80;21016;-77
2022/01/07 09:00:56;;;;;;;50.73;20.57;;;;;;;-0.38;69.36;99288.11;2209118;80;20996;-78
2022/01/07 09:03:57;;;;;;;58.47;20.60;;;;;;;-0.27;68.44;99290.94;2182219;80;20948;-77
2022/01/07 09:06:58;;;;;;;45.63;18.23;;;;;;;-0.20;68.52;99300.78;2171339;80;20992;-78
2022/01/07 09:09:58;;;;;;;57.63;22.40;;;;;;;-0.09;67.78;99308.73;2198286;80;20993;-78
2022/01/07 09:12:58;;;;;;;50.67;18.97;;;;;;;-0.02;65.79;99312.16;2204351;80;20988;-78
2022/01/07 09:15:59;;;;;;;127.60;39.90;;;;;;;0.08;65.70;99309.78;2209520;80;21003;-77
2022/01/07 09:19:00;;;;;;;118.93;38.83;;;;;;;0.10;66.03;99304.74;2174478;80;20983;-78
2022/01/07 09:22:01;;;;;;;114.63;35.63;;;;;;;0.27;66.98;99294.68;2189239;80;21838;-78
2022/01/07 09:25:01;;;;;;;125.27;41.17;;;;;;;0.38;65.46;99294.03;2194905;80;21087;-78
2022/01/07 09:28:02;;;;;;;73.33;25.03;;;;;;;0.51;66.24;99287.52;2193962;80;21035;-78
2022/01/07 09:31:02;;;;;;;58.50;19.07;;;;;;;0.69;64.33;99277.82;2197767;80;21000;-78
2022/01/07 09:34:02;;;;;;;31.73;14.33;;;;;;;0.81;64.95;99278.13;2185906;80;20988;-79
2022/01/07 09:37:03;;;;;;;43.70;16.83;;;;;;;0.95;63.08;99271.22;2202257;80;21526;-78
2022/01/07 09:40:04;;;;;;;36.47;15.20;;;;;;;1.02;64.09;99274.62;2188651;80;20979;-79
2022/01/07 09:43:04;;;;;;;28.90;12.67;;;;;;;1.16;63.33;99270.24;2181385;80;20987;-78
2022/01/07 09:46:05;;;;;;;28.13;12.83;;;;;;;1.27;62.35;99274.29;2164586;80;20996;-78
2022/01/07 09:49:05;;;;;;;31.67;12.27;;;;;;;1.39;62.58;99274.07;2182366;80;20980;-77
2022/01/07 09:52:07;;;;;;;22.40;10.93;;;;;;;1.51;62.58;99278.20;2209070;81;21040;-78
2022/01/07 09:55:07;;;;;;;26.10;10.53;;;;;;;1.60;61.33;99264.94;2191779;80;21016;-78
2022/01/07 09:58:08;;;;;;;24.93;10.73;;;;;;;1.63;60.19;99261.24;2185480;80;21047;-79
2022/01/07 10:01:16;;;;;;;30.50;13.63;;;;;;;1.68;59.55;99259.80;2191793;80;21030;-79
2022/01/07 10:04:13;;;;;;;31.00;13.27;;;;;;;1.76;58.52;99266.27;2187843;80;21051;-79
2022/01/07 10:07:16;;;;;;;27.63;12.03;;;;;;;1.81;60.02;99259.67;2189255;80;21031;-78
2022/01/07 10:10:20;;;;;;;20.50;9.47;;;;;;;1.91;59.36;99254.20;2210252;81;21011;-78
2022/01/07 10:13:21;;;;;;;21.23;10.08;;;;;;;1.99;57.50;99245.59;2173193;80;20972;-79
2022/01/07 10:16:21;;;;;;;26.27;12.00;;;;;;;1.99;58.68;99243.41;2193053;80;21000;-78
2022/01/07 10:19:22;;;;;;;23.13;10.90;;;;;;;2.08;57.10;99237.05;2198507;80;20972;-77
2022/01/07 10:22:22;;;;;;;23.00;10.20;;;;;;;2.11;55.53;99238.49;2208677;81;21019;-79
2022/01/07 10:25:23;;;;;;;20.10;9.07;;;;;;;2.19;57.37;99241.46;2179523;80;21015;-79
2022/01/07 10:28:23;;;;;;;18.53;7.73;;;;;;;2.26;56.98;99237.09;2212368;80;21008;-80
2022/01/07 10:31:24;;;;;;;15.50;7.40;;;;;;;2.27;55.55;99237.98;2208201;81;21019;-79
2022/01/07 10:34:24;;;;;;;17.10;7.20;;;;;;;2.28;54.96;99234.20;2187826;80;21000;-79
2022/01/07 10:37:25;;;;;;;18.90;8.93;;;;;;;2.21;54.46;99235.98;2189489;80;21019;-79
2022/01/07 10:40:25;;;;;;;17.83;10.57;;;;;;;2.22;55.53;99228.73;2171264;80;21364;-78
2022/01/07 10:43:27;;;;;;;19.10;10.57;;;;;;;2.23;53.91;99225.36;2201500;80;20999;-78
2022/01/07 10:46:30;;;;;;;13.67;9.50;;;;;;;2.21;54.99;99234.70;2204885;80;21025;-79
2022/01/07 10:49:30;;;;;;;15.67;6.73;;;;;;;2.18;53.09;99217.39;2204630;80;21367;-79
2022/01/07 10:52:31;;;;;;;12.50;8.07;;;;;;;2.13;53.10;99218.86;2199019;80;21004;-80
2022/01/07 10:55:31;;;;;;;14.40;6.97;;;;;;;2.12;51.95;99215.80;2210316;80;21023;-79
2022/01/07 10:58:32;;;;;;;15.13;7.30;;;;;;;2.12;52.05;99217.48;2196936;80;21076;-79
2022/01/07 11:01:35;;;;;;;14.53;6.50;;;;;;;2.19;53.43;99235.02;2191051;80;21018;-79
2022/01/07 11:04:36;;;;;;;11.63;6.10;;;;;;;2.25;53.14;99223.73;2193231;80;21452;-79
2022/01/07 11:07:36;;;;;;;15.03;6.73;;;;;;;2.26;51.91;99221.64;2195315;80;20977;-79
2022/01/07 11:10:37;;;;;;;13.00;6.20;;;;;;;2.30;52.77;99222.28;2124933;82;20980;-79
2022/01/07 11:13:37;;;;;;;11.17;6.27;;;;;;;2.25;48.96;99208.28;2117803;83;21004;-79
2022/01/07 11:16:38;;;;;;;13.00;6.67;;;;;;;2.27;49.61;99208.36;2116809;83;21646;-79
2022/01/07 11:19:39;;;;;;;14.93;6.93;;;;;;;2.33;50.52;99203.52;2125957;82;21361;-79
2022/01/07 11:22:42;;;;;;;12.00;6.47;;;;;;;2.35;51.50;99210.51;2129117;83;21055;-79
2022/01/07 11:25:42;;;;;;;13.30;6.47;;;;;;;2.40;51.09;99203.89;2201227;80;21099;-80
2022/01/07 11:28:43;;;;;;;14.23;6.43;;;;;;;2.41;49.20;99197.93;2178450;80;20995;-79
2022/01/07 11:31:43;;;;;;;17.00;8.17;;;;;;;2.41;49.24;99199.22;2170777;80;20991;-80
2022/01/07 11:34:44;;;;;;;18.07;7.83;;;;;;;2.37;47.87;99193.44;2171953;80;21415;-81
2022/01/07 11:37:44;;;;;;;15.17;7.70;;;;;;;2.30;49.19;99193.06;2165916;80;21328;-81
2022/01/07 11:40:45;;;;;;;14.53;7.60;;;;;;;2.33;49.86;99187.66;2188235;80;21000;-81
2022/01/07 11:43:45;;;;;;;15.27;7.40;;;;;;;2.37;50.41;99190.86;2207414;80;21003;-81
2022/01/07 11:46:46;;;;;;;14.53;7.60;;;;;;;2.37;49.04;99183.13;2171563;80;21035;-81
2022/01/07 11:49:46;;;;;;;16.00;7.63;;;;;;;2.33;48.51;99180.33;2201314;80;21000;-81
2022/01/07 11:52:47;;;;;;;16.00;7.80;;;;;;;2.32;49.42;99177.27;2177766;80;21416;-81
2022/01/07 11:55:47;;;;;;;15.70;8.03;;;;;;;2.35;49.94;99169.70;2189717;80;21015;-80
2022/01/07 11:58:51;;;;;;;17.80;8.27;;;;;;;2.35;48.90;99162.85;2185881;80;21333;-80
2022/01/07 12:01:50;;;;;;;17.70;8.23;;;;;;;2.36;49.02;99162.45;2197225;80;21382;-80
2022/01/07 12:04:51;;;;;;;17.67;8.80;;;;;;;2.35;48.35;99159.39;2198727;80;20988;-81
2022/01/07 12:07:51;;;;;;;31.83;11.13;;;;;;;2.31;48.63;99159.64;2181727;80;21387;-79
2022/01/07 12:10:52;;;;;;;19.77;8.60;;;;;;;2.31;49.67;99154.50;2173791;80;21023;-79
2022/01/07 12:13:52;;;;;;;17.60;8.40;;;;;;;2.33;49.55;99145.55;2185940;80;21008;-79
2022/01/07 12:16:53;;;;;;;19.30;9.30;;;;;;;2.33;50.46;99149.41;2198738;80;21008;-80
2022/01/07 12:19:53;;;;;;;26.87;10.67;;;;;;;2.31;50.93;99153.20;2210521;80;20988;-81
2022/01/07 12:22:54;;;;;;;21.63;9.07;;;;;;;2.39;51.09;99146.73;2176883;80;21352;-80
2022/01/07 12:25:55;;;;;;;18.27;9.00;;;;;;;2.41;50.98;99150.67;2192689;80;21408;-80
2022/01/07 12:28:55;;;;;;;25.90;10.17;;;;;;;2.45;50.98;99150.89;2194290;80;20972;-81
2022/01/07 12:31:56;;;;;;;17.90;9.30;;;;;;;2.47;50.88;99150.56;2186376;80;20980;-81
2022/01/07 12:34:57;;;;;;;20.87;9.90;;;;;;;2.48;49.99;99151.45;2164413;80;20963;-80
2022/01/07 12:37:57;;;;;;;21.57;10.90;;;;;;;2.45;49.34;99153.47;2181663;80;21352;-79
2022/01/07 12:41:01;;;;;;;30.00;10.77;;;;;;;2.39;49.86;99151.89;2195343;80;21004;-79
2022/01/07 12:44:02;;;;;;;26.05;10.63;;;;;;;2.38;50.18;99151.81;2175269;80;21032;-81
2022/01/07 12:47:02;;;;;;;20.20;10.07;;;;;;;2.39;50.81;99144.16;2208365;81;20996;-81
2022/01/07 12:50:03;;;;;;;27.60;11.87;;;;;;;2.39;50.06;99139.00;2173958;80;21045;-81
2022/01/07 12:53:04;;;;;;;22.03;11.27;;;;;;;2.42;50.40;99139.56;2195537;80;21361;-81
2022/01/07 12:56:04;;;;;;;24.27;10.23;;;;;;;2.44;51.02;99134.08;2186783;80;21470;-80
2022/01/07 12:59:04;;;;;;;20.33;11.27;;;;;;;2.41;50.41;99130.95;2202702;80;21696;-81
2022/01/07 13:02:05;;;;;;;24.27;10.77;;;;;;;2.39;49.19;99131.28;2192783;80;21364;-82
2022/01/07 13:05:06;;;;;;;26.77;10.70;;;;;;;2.40;48.93;99134.33;2201174;80;20992;-81
2022/01/07 13:08:06;;;;;;;26.00;10.73;;;;;;;2.35;48.19;99125.50;2203674;80;20991;-80
2022/01/07 13:11:07;;;;;;;22.07;10.07;;;;;;;2.34;48.58;99125.02;2186553;80;21016;-81
2022/01/07 13:14:07;;;;;;;22.80;10.93;;;;;;;2.31;48.33;99126.16;2199810;80;20988;-80
2022/01/07 13:17:10;;;;;;;23.47;9.50;;;;;;;2.30;48.88;99124.80;2183367;80;21008;-81
2022/01/07 13:20:10;;;;;;;22.30;10.00;;;;;;;2.28;48.38;99119.97;2202815;80;21009;-81
2022/01/07 13:23:10;;;;;;;20.83;9.60;;;;;;;2.24;48.73;99115.96;2165943;81;21071;-79
2022/01/07 13:26:11;;;;;;;22.93;10.73;;;;;;;2.18;48.54;99118.23;2207865;80;20988;-81
2022/01/07 13:29:13;;;;;;;29.60;10.33;;;;;;;2.08;49.59;99112.56;2178376;80;21011;-80
2022/01/07 13:32:13;;;;;;;32.00;13.07;;;;;;;2.03;49.25;99120.06;2180073;80;20983;-80
2022/01/07 13:35:14;;;;;;;40.10;14.40;;;;;;;1.99;50.66;99114.69;2202786;80;21000;-80
2022/01/07 13:38:14;;;;;;;33.07;13.23;;;;;;;1.95;50.18;99108.91;2202089;80;20948;-80
2022/01/07 13:41:15;;;;;;;31.30;13.57;;;;;;;1.85;50.21;99108.45;2186383;80;21062;-80
2022/01/07 13:44:15;;;;;;;20.97;11.23;;;;;;;1.77;50.34;99108.87;2180450;80;21355;-80
2022/01/07 13:47:16;;;;;;;23.37;12.53;;;;;;;1.73;49.49;99108.20;2198267;80;21004;-80
2022/01/07 13:50:22;;;;;;;31.00;15.27;;;;;;;1.69;50.11;99105.88;2179259;80;20987;-80
2022/01/07 13:53:22;;;;;;;29.63;13.40;;;;;;;1.66;50.65;99103.14;2191710;80;21751;-80
2022/01/07 13:56:23;;;;;;;31.60;15.63;;;;;;;1.63;50.19;99099.53;2175359;80;21070;-79
2022/01/07 13:59:24;;;;;;;29.10;14.43;;;;;;;1.59;50.89;99097.20;2190058;80;21427;-80
2022/01/07 14:02:24;;;;;;;39.83;19.13;;;;;;;1.47;49.59;99098.75;2176057;80;20996;-79
2022/01/07 14:05:25;;;;;;;40.23;19.37;;;;;;;1.42;50.89;99106.64;2172967;80;21039;-79
2022/01/07 14:08:25;;;;;;;43.00;18.20;;;;;;;1.38;51.27;99103.83;2194059;80;21020;-79
2022/01/07 14:11:26;;;;;;;42.70;18.57;;;;;;;1.28;51.05;99098.61;2183490;80;21016;-80